Time;durP1;ratioP1;P1;durP2;ratioP2;P2;SDS_P1;SDS_P2;PMS_P1;PMS_P2;Temp;Humidity;BMP_temperature;BMP_pressure;BME280_temperature;BME280_humidity;BME280_pressure;Samples;Min_cycle;Max_cycle;Signal;HPM_P1;HPM_P2
2023/07/01 00:00:34;;;;;;;7.60;4.33;;;17.20;99.90;;;;;;5150687;27;20225;-69
2023/07/01 00:03:00;;;;;;;5.43;4.03;;;17.20;99.90;;;;;;5150787;27;20268;-69
2023/07/01 00:05:25;;;;;;;7.90;4.67;;;17.20;99.90;;;;;;5150682;27;20999;-69
2023/07/01 00:07:51;;;;;;;11.30;4.37;;;17.10;99.90;;;;;;5131961;27;20586;-69
2023/07/01 00:10:16;;;;;;;11.00;6.23;;;17.10;99.90;;;;;;5131902;27;20742;-69
2023/07/01 00:12:42;;;;;;;8.83;4.47;;;17.10;99.90;;;;;;5150574;27;20198;-69
2023/07/01 00:15:08;;;;;;;9.23;4.50;;;17.00;99.90;;;;;;5150612;27;20185;-69
2023/07/01 00:17:33;;;;;;;5.20;4.47;;;17.00;99.90;;;;;;5150588;27;20184;-69
2023/07/01 00:19:59;;;;;;;5.50;4.73;;;17.00;99.90;;;;;;5150256;27;20210;-69
2023/07/01 00:22:24;;;;;;;6.80;4.70;;;17.00;99.90;;;;;;5131668;27;20268;-69
2023/07/01 00:24:50;;;;;;;5.40;4.10;;;17.00;99.90;;;;;;5150407;27;20192;-69
2023/07/01 00:27:16;;;;;;;7.63;4.17;;;16.90;99.90;;;;;;5150129;27;20234;-69
2023/07/01 00:29:42;;;;;;;6.70;4.67;;;16.90;99.90;;;;;;5131684;27;20673;-69
2023/07/01 00:32:08;;;;;;;6.80;5.10;;;16.90;99.90;;;;;;5131869;27;20184;-69
2023/07/01 00:34:34;;;;;;;6.50;4.50;;;16.90;99.90;;;;;;5131642;27;20793;-69
2023/07/01 00:36:59;;;;;;;7.27;3.73;;;16.80;99.90;;;;;;5150317;27;20444;-69
2023/07/01 00:39:25;;;;;;;5.23;4.03;;;16.80;99.90;;;;;;5150117;27;20222;-69
2023/07/01 00:41:54;;;;;;;10.73;4.07;;;16.80;99.90;;;;;;5131722;27;20215;-69
2023/07/01 00:44:23;;;;;;;4.90;4.23;;;16.80;99.90;;;;;;5150151;27;20599;-69
2023/07/01 00:46:48;;;;;;;7.77;4.17;;;16.80;99.90;;;;;;5150096;27;20446;-69
2023/07/01 00:49:14;;;;;;;5.27;4.20;;;16.70;99.90;;;;;;5150189;27;20909;-69
2023/07/01 00:51:40;;;;;;;6.37;4.07;;;16.80;99.90;;;;;;5149967;27;20229;-68
2023/07/01 00:54:06;;;;;;;5.20;3.60;;;16.80;99.90;;;;;;5149918;27;20229;-68
2023/07/01 00:56:31;;;;;;;4.17;3.67;;;16.80;99.90;;;;;;5149831;27;20231;-68
2023/07/01 00:58:57;;;;;;;5.10;3.97;;;16.80;99.90;;;;;;5149904;27;20194;-69
2023/07/01 01:01:34;;;;;;;4.90;3.60;;;16.80;99.90;;;;;;5131041;27;20216;-68
2023/07/01 01:04:05;;;;;;;6.17;3.70;;;16.80;99.90;;;;;;5150013;27;20413;-68
2023/07/01 01:06:52;;;;;;;5.83;3.60;;;16.80;99.90;;;;;;5150096;27;20401;-68
2023/07/01 01:09:51;;;;;;;10.47;3.53;;;16.80;99.90;;;;;;5132158;27;20415;-68
2023/07/01 01:12:19;;;;;;;5.90;3.60;;;16.80;99.90;;;;;;5149151;27;20426;-68
2023/07/01 01:14:48;;;;;;;6.43;3.93;;;16.70;99.90;;;;;;5114449;27;20427;-69
2023/07/01 01:17:15;;;;;;;8.63;4.43;;;16.70;99.90;;;;;;5149779;27;20418;-68
2023/07/01 01:19:58;;;;;;;10.40;3.27;;;16.70;99.90;;;;;;5149583;27;21113;-69
2023/07/01 01:22:34;;;;;;;6.40;4.23;;;16.70;99.90;;;;;;5131375;27;20464;-68
2023/07/01 01:25:08;;;;;;;5.13;3.90;;;16.60;99.90;;;;;;5149672;27;20408;-68
2023/07/01 01:27:40;;;;;;;4.97;3.90;;;16.50;99.90;;;;;;5149512;27;20440;-68
2023/07/01 01:30:07;;;;;;;5.07;3.90;;;16.50;99.90;;;;;;5150864;27;20473;-69
2023/07/01 01:32:34;;;;;;;6.03;3.80;;;16.50;99.90;;;;;;5153412;27;20415;-69
2023/07/01 01:35:00;;;;;;;3.20;2.90;;;16.50;99.90;;;;;;5153302;27;20872;-69
2023/07/01 01:37:55;;;;;;;7.17;4.20;;;16.50;99.90;;;;;;5153650;27;20415;-68
2023/07/01 01:40:27;;;;;;;4.80;3.67;;;16.50;99.90;;;;;;5097674;27;20443;-69
2023/07/01 01:43:02;;;;;;;5.50;3.30;;;16.50;99.90;;;;;;5153319;27;20463;-68
2023/07/01 01:45:28;;;;;;;6.20;3.50;;;16.50;99.90;;;;;;5153417;27;20456;-68
2023/07/01 01:47:54;;;;;;;8.57;3.40;;;16.50;99.90;;;;;;5153427;27;20425;-69
2023/07/01 01:50:21;;;;;;;3.30;3.00;;;16.60;99.90;;;;;;5153340;27;20199;-68
2023/07/01 01:52:50;;;;;;;4.13;3.60;;;16.60;99.90;;;;;;5153248;27;20531;-68
2023/07/01 01:55:17;;;;;;;6.60;3.83;;;16.60;99.90;;;;;;5153217;27;20427;-68
2023/07/01 01:57:43;;;;;;;3.37;3.07;;;16.60;99.90;;;;;;5153242;27;20509;-69
2023/07/01 02:00:09;;;;;;;3.60;2.83;;;16.60;99.90;;;;;;5153138;27;20445;-69
2023/07/01 02:02:36;;;;;;;17.10;5.50;;;16.70;99.90;;;;;;5153035;27;20490;-69
2023/07/01 02:05:01;;;;;;;5.20;3.63;;;16.70;99.90;;;;;;5153050;27;20420;-69
2023/07/01 02:07:27;;;;;;;12.90;3.93;;;16.70;99.90;;;;;;5153118;27;20936;-68
2023/07/01 02:09:52;;;;;;;4.00;3.23;;;16.60;99.90;;;;;;5153107;27;20215;-69
2023/07/01 02:12:18;;;;;;;6.63;3.70;;;16.70;99.90;;;;;;5134461;27;20581;-68
2023/07/01 02:14:44;;;;;;;5.97;3.57;;;16.60;99.90;;;;;;5153222;27;20274;-69
2023/07/01 02:17:09;;;;;;;7.10;3.50;;;16.70;99.90;;;;;;5153121;27;20198;-68
2023/07/01 02:19:35;;;;;;;4.10;3.60;;;16.80;99.90;;;;;;5153034;27;20176;-69
2023/07/01 02:22:00;;;;;;;8.93;3.43;;;16.70;99.90;;;;;;5153076;27;20649;-69
2023/07/01 02:24:26;;;;;;;4.43;3.33;;;16.70;99.90;;;;;;5153207;27;20183;-69
2023/07/01 02:26:52;;;;;;;3.20;2.90;;;16.70;99.90;;;;;;5153167;27;20192;-69
2023/07/01 02:29:18;;;;;;;4.10;3.43;;;16.70;99.90;;;;;;5153164;27;20644;-68
2023/07/01 02:31:43;;;;;;;3.57;3.27;;;16.70;99.90;;;;;;5134177;27;20186;-68
2023/07/01 02:34:09;;;;;;;5.13;3.30;;;16.70;99.90;;;;;;5134345;27;20960;-69
2023/07/01 02:36:34;;;;;;;6.23;4.00;;;16.80;99.90;;;;;;5153238;27;20207;-69
2023/07/01 02:39:00;;;;;;;7.93;3.53;;;16.80;99.90;;;;;;5153323;27;20189;-69
2023/07/01 02:41:25;;;;;;;6.23;3.67;;;16.80;99.90;;;;;;5133264;27;20230;-69
2023/07/01 02:43:51;;;;;;;3.63;3.20;;;16.80;99.90;;;;;;5153285;27;20182;-69
2023/07/01 02:46:17;;;;;;;7.40;2.73;;;16.80;99.90;;;;;;5134277;27;20202;-69
2023/07/01 02:48:42;;;;;;;4.87;3.40;;;16.80;99.90;;;;;;5153111;27;20178;-69
2023/07/01 02:51:08;;;;;;;6.37;2.97;;;16.80;99.90;;;;;;5152738;27;20262;-69
2023/07/01 02:53:33;;;;;;;5.40;3.80;;;16.90;99.90;;;;;;5152737;27;20194;-68
2023/07/01 02:55:59;;;;;;;6.83;3.67;;;16.80;99.90;;;;;;5133834;27;20198;-68
2023/07/01 02:58:25;;;;;;;4.57;2.90;;;16.80;99.90;;;;;;5152595;27;20198;-68
2023/07/01 03:00:51;;;;;;;4.07;3.23;;;16.80;99.90;;;;;;5152113;27;21011;-68
2023/07/01 03:03:17;;;;;;;4.20;3.00;;;16.80;99.90;;;;;;5152111;27;20189;-68
2023/07/01 03:05:43;;;;;;;6.50;3.87;;;16.80;99.90;;;;;;5151993;27;20189;-68
2023/07/01 03:08:08;;;;;;;4.40;3.07;;;16.90;99.90;;;;;;5151973;27;20866;-68
2023/07/01 03:10:34;;;;;;;4.67;3.30;;;16.90;99.90;;;;;;5115994;27;20208;-68
2023/07/01 03:13:00;;;;;;;4.47;3.40;;;16.80;99.90;;;;;;5151810;27;20180;-68
2023/07/01 03:15:25;;;;;;;5.10;3.73;;;16.90;99.90;;;;;;5151698;27;20277;-69
2023/07/01 03:17:52;;;;;;;4.07;3.67;;;16.80;99.90;;;;;;5115877;27;20334;-68
2023/07/01 03:20:24;;;;;;;3.77;3.40;;;16.70;99.90;;;;;;5151629;27;20205;-68
2023/07/01 03:22:56;;;;;;;15.17;3.77;;;16.80;99.90;;;;;;5151831;27;20471;-68
2023/07/01 03:25:21;;;;;;;4.30;3.40;;;16.80;99.90;;;;;;5152228;27;20420;-69
2023/07/01 03:27:47;;;;;;;3.30;3.00;;;16.80;99.90;;;;;;5133252;27;20444;-69
2023/07/01 03:30:16;;;;;;;4.70;3.27;;;16.90;99.90;;;;;;5152166;27;20444;-68
2023/07/01 03:32:47;;;;;;;3.57;3.00;;;16.90;99.90;;;;;;5152098;27;20837;-69
2023/07/01 03:35:13;;;;;;;6.27;3.90;;;16.80;99.90;;;;;;5133364;27;20436;-69
2023/07/01 03:37:40;;;;;;;6.60;3.30;;;16.90;99.90;;;;;;5133612;27;20430;-69
2023/07/01 03:40:12;;;;;;;3.93;2.80;;;16.90;99.90;;;;;;5151789;27;21010;-69
2023/07/01 03:42:42;;;;;;;4.53;3.80;;;16.80;99.90;;;;;;5133199;27;20471;-68
2023/07/01 03:45:10;;;;;;;4.00;3.30;;;16.80;99.90;;;;;;5151857;27;20990;-69
2023/07/01 03:47:37;;;;;;;4.30;3.23;;;16.80;99.90;;;;;;5133125;27;20493;-68
2023/07/01 03:50:04;;;;;;;4.07;3.40;;;16.80;99.90;;;;;;5151489;27;20906;-68
2023/07/01 03:52:30;;;;;;;3.30;2.83;;;16.80;99.90;;;;;;5151308;27;20796;-68
2023/07/01 03:54:56;;;;;;;9.57;2.90;;;16.80;99.90;;;;;;5151439;27;20421;-68
2023/07/01 03:57:22;;;;;;;4.30;2.90;;;16.90;99.90;;;;;;5151193;27;20445;-68
2023/07/01 03:59:48;;;;;;;3.47;3.17;;;16.80;99.90;;;;;;5151024;27;20490;-68
2023/07/01 04:02:14;;;;;;;4.27;3.50;;;16.80;99.90;;;;;;5132336;27;20460;-68
2023/07/01 04:04:39;;;;;;;4.60;3.80;;;16.80;99.90;;;;;;5150860;27;20206;-69
2023/07/01 04:07:05;;;;;;;4.77;3.97;;;16.90;99.90;;;;;;5150804;27;20412;-68
2023/07/01 04:09:31;;;;;;;4.50;3.87;;;16.90;99.90;;;;;;5150743;27;20659;-69
2023/07/01 04:11:57;;;;;;;5.03;3.53;;;17.00;99.90;;;;;;5150622;27;20183;-68
2023/07/01 04:14:23;;;;;;;4.07;3.00;;;17.00;99.90;;;;;;5150692;27;20420;-68
2023/07/01 04:16:49;;;;;;;5.40;3.20;;;17.00;99.90;;;;;;5150569;27;20189;-68
2023/07/01 04:19:15;;;;;;;5.77;3.30;;;17.10;99.90;;;;;;5150568;27;20423;-68
2023/07/01 04:21:40;;;;;;;4.70;3.10;;;17.10;99.90;;;;;;5150455;27;20883;-68
2023/07/01 04:24:07;;;;;;;7.80;3.40;;;17.10;99.90;;;;;;5150943;27;20183;-68
2023/07/01 04:26:34;;;;;;;5.43;3.50;;;17.10;99.90;;;;;;5150217;27;20189;-68
2023/07/01 04:29:00;;;;;;;4.93;3.13;;;17.10;99.90;;;;;;5150382;27;20419;-68
2023/07/01 04:31:26;;;;;;;3.13;2.50;;;17.10;99.90;;;;;;5131626;27;20922;-68
2023/07/01 04:33:52;;;;;;;5.20;3.90;;;17.10;99.90;;;;;;5150274;27;20937;-69
2023/07/01 04:36:18;;;;;;;4.63;3.10;;;17.10;99.90;;;;;;5131569;27;20448;-69
2023/07/01 04:38:43;;;;;;;5.67;2.93;;;17.10;99.90;;;;;;5131658;27;20612;-69
2023/07/01 04:41:09;;;;;;;6.30;3.10;;;17.00;99.90;;;;;;5150013;27;20220;-69
2023/07/01 04:43:35;;;;;;;8.47;3.30;;;17.00;99.90;;;;;;5150129;27;20236;-69
2023/07/01 04:46:01;;;;;;;5.07;3.53;;;16.90;99.90;;;;;;5150162;27;20187;-69
2023/07/01 04:48:27;;;;;;;6.03;3.30;;;16.90;99.90;;;;;;5150080;27;20410;-69
2023/07/01 04:50:53;;;;;;;4.73;3.20;;;16.90;99.90;;;;;;5149916;27;20196;-69
2023/07/01 04:53:19;;;;;;;5.07;3.00;;;17.00;99.90;;;;;;5150311;27;20446;-69
2023/07/01 04:55:45;;;;;;;3.83;3.30;;;17.00;99.90;;;;;;5150201;27;20409;-68
2023/07/01 04:58:10;;;;;;;6.27;3.20;;;16.90;99.90;;;;;;5131502;27;20182;-68
2023/07/01 05:00:37;;;;;;;4.93;3.27;;;16.90;99.90;;;;;;5149936;27;20203;-69
2023/07/01 05:03:03;;;;;;;2.90;2.70;;;16.90;99.90;;;;;;5149979;27;20231;-69
2023/07/01 05:05:29;;;;;;;4.70;2.50;;;17.00;99.90;;;;;;5152126;27;20458;-68
2023/07/01 05:07:54;;;;;;;7.10;3.00;;;17.10;99.90;;;;;;5135597;27;20443;-69
2023/07/01 05:10:20;;;;;;;6.50;3.20;;;17.30;99.90;;;;;;5135357;27;20690;-69
2023/07/01 05:12:46;;;;;;;4.97;2.83;;;17.40;99.90;;;;;;5154233;27;20612;-69
2023/07/01 05:15:11;;;;;;;4.67;2.83;;;17.50;99.90;;;;;;5154631;27;20945;-68
2023/07/01 05:17:37;;;;;;;3.30;3.00;;;17.60;99.90;;;;;;5154279;27;20187;-68
2023/07/01 05:20:04;;;;;;;3.37;2.83;;;17.60;99.90;;;;;;5154056;27;20270;-68
2023/07/01 05:22:29;;;;;;;5.80;3.20;;;17.70;99.90;;;;;;5153876;27;20203;-68
2023/07/01 05:24:55;;;;;;;6.27;3.03;;;17.80;99.90;;;;;;5154203;27;20423;-68
2023/07/01 05:27:20;;;;;;;3.63;2.93;;;17.90;99.90;;;;;;5153901;27;20208;-68
2023/07/01 05:29:46;;;;;;;4.47;3.10;;;18.00;99.90;;;;;;5153737;27;20258;-69
2023/07/01 05:32:11;;;;;;;3.07;2.87;;;17.90;99.90;;;;;;5153767;27;20532;-69
2023/07/01 05:34:37;;;;;;;5.37;3.20;;;18.00;99.90;;;;;;5153885;27;20218;-69
2023/07/01 05:37:03;;;;;;;7.47;2.90;;;18.10;99.90;;;;;;5153732;27;20195;-69
2023/07/01 05:39:30;;;;;;;3.63;2.90;;;18.20;99.90;;;;;;5153458;27;20426;-69
2023/07/01 05:41:56;;;;;;;3.37;2.50;;;18.30;99.90;;;;;;5153592;27;20223;-69
2023/07/01 05:44:24;;;;;;;6.03;3.40;;;18.30;99.90;;;;;;5134720;27;20419;-67
2023/07/01 05:46:50;;;;;;;4.80;3.10;;;18.30;99.90;;;;;;5134760;27;20432;-69
2023/07/01 05:49:15;;;;;;;4.63;3.03;;;18.50;99.90;;;;;;5153400;27;20488;-68
2023/07/01 05:51:41;;;;;;;3.40;3.10;;;18.40;99.90;;;;;;5153265;27;20202;-67
2023/07/01 05:54:06;;;;;;;5.93;3.20;;;18.50;99.90;;;;;;5153377;27;20267;-69
2023/07/01 05:56:32;;;;;;;3.10;2.77;;;18.50;99.90;;;;;;5153431;27;20323;-69
2023/07/01 05:58:57;;;;;;;5.40;3.23;;;18.60;99.90;;;;;;5134530;27;20192;-68
2023/07/01 06:01:23;;;;;;;5.27;3.60;;;18.40;99.90;;;;;;5153181;27;20211;-68
2023/07/01 06:03:49;;;;;;;12.37;4.07;;;18.50;99.90;;;;;;5153228;27;20248;-68
2023/07/01 06:06:14;;;;;;;4.20;3.07;;;18.70;99.90;;;;;;5153253;27;20200;-68
2023/07/01 06:08:42;;;;;;;7.90;3.80;;;18.70;99.90;;;;;;5152964;27;20564;-68
2023/07/01 06:11:08;;;;;;;7.40;4.00;;;18.70;99.90;;;;;;5152937;27;21029;-68
2023/07/01 06:13:34;;;;;;;6.43;3.57;;;18.70;99.90;;;;;;5152889;27;20496;-69
2023/07/01 06:15:59;;;;;;;3.40;3.13;;;18.80;99.90;;;;;;5152779;27;20480;-68
2023/07/01 06:18:25;;;;;;;6.60;3.80;;;18.90;99.90;;;;;;5134428;27;20274;-68
2023/07/01 06:20:50;;;;;;;7.60;3.50;;;18.80;99.90;;;;;;5152852;27;20200;-68
2023/07/01 06:23:17;;;;;;;6.27;3.87;;;18.90;99.90;;;;;;5152766;27;20227;-68
2023/07/01 06:25:42;;;;;;;6.90;3.97;;;19.00;99.90;;;;;;5152894;27;20188;-68
2023/07/01 06:28:08;;;;;;;6.50;2.70;;;19.00;99.90;;;;;;5152840;27;20875;-68
2023/07/01 06:30:33;;;;;;;5.80;3.43;;;19.10;99.90;;;;;;5152828;27;20216;-68
2023/07/01 06:32:59;;;;;;;9.80;2.97;;;19.20;99.90;;;;;;5153206;27;20181;-68
2023/07/01 06:35:24;;;;;;;4.33;3.03;;;19.30;99.90;;;;;;5134751;27;20177;-68
2023/07/01 06:37:50;;;;;;;3.67;3.03;;;19.50;99.90;;;;;;5134538;27;20683;-69
2023/07/01 06:40:16;;;;;;;4.77;3.50;;;19.60;99.90;;;;;;5153240;27;20308;-69
2023/07/01 06:42:42;;;;;;;5.13;4.00;;;19.70;99.90;;;;;;5134528;27;20222;-68
2023/07/01 06:45:08;;;;;;;6.17;3.43;;;19.80;99.90;;;;;;5153113;27;20550;-69
2023/07/01 06:47:33;;;;;;;4.00;3.10;;;19.80;99.90;;;;;;5153122;27;20410;-69
2023/07/01 06:49:59;;;;;;;4.07;3.17;;;19.90;99.90;;;;;;5152946;27;20204;-69
2023/07/01 06:52:24;;;;;;;4.10;3.23;;;20.00;99.90;;;;;;5152896;27;20605;-70
2023/07/01 06:54:50;;;;;;;5.20;3.03;;;20.10;99.90;;;;;;5133963;27;20186;-69
2023/07/01 06:57:15;;;;;;;7.70;2.97;;;20.20;99.90;;;;;;5153279;27;20188;-70
2023/07/01 06:59:41;;;;;;;5.53;3.07;;;20.20;99.90;;;;;;5153962;27;20212;-69
2023/07/01 07:02:07;;;;;;;4.60;3.07;;;20.30;99.90;;;;;;5153303;27;20238;-69
2023/07/01 07:04:32;;;;;;;3.50;2.93;;;20.30;99.90;;;;;;5135989;27;20245;-76
2023/07/01 07:06:58;;;;;;;5.47;3.20;;;20.40;99.90;;;;;;5154390;27;20263;-76
2023/07/01 07:09:23;;;;;;;3.17;2.80;;;20.30;99.90;;;;;;5135042;27;20598;-76
2023/07/01 07:11:51;;;;;;;3.20;2.73;;;20.40;99.90;;;;;;5116929;27;20185;-76
2023/07/01 07:14:17;;;;;;;5.80;2.90;;;20.40;99.90;;;;;;5133822;27;20558;-76
2023/07/01 07:16:49;;;;;;;3.43;2.83;;;20.50;99.90;;;;;;5152269;27;20433;-76
2023/07/01 07:19:14;;;;;;;3.77;2.20;;;20.50;99.90;;;;;;5133730;27;20184;-76
2023/07/01 07:21:41;;;;;;;3.37;3.07;;;20.60;99.90;;;;;;5133453;27;20508;-76
2023/07/01 07:24:06;;;;;;;5.33;3.53;;;20.60;99.90;;;;;;5133590;27;20205;-76
2023/07/01 07:26:33;;;;;;;4.40;2.70;;;20.70;99.90;;;;;;5152260;27;20456;-76
2023/07/01 07:28:59;;;;;;;4.53;2.53;;;20.60;99.90;;;;;;5151632;27;20625;-76
2023/07/01 07:31:24;;;;;;;3.23;2.53;;;20.70;99.90;;;;;;5151953;27;20542;-76
2023/07/01 07:33:50;;;;;;;6.30;2.80;;;20.80;99.90;;;;;;5133289;27;20191;-77
2023/07/01 07:36:16;;;;;;;8.73;2.33;;;20.80;99.90;;;;;;5133585;27;20194;-75
2023/07/01 07:38:41;;;;;;;5.50;2.97;;;20.80;99.90;;;;;;5152628;27;20268;-77
2023/07/01 07:41:07;;;;;;;11.53;3.17;;;20.80;99.90;;;;;;5151757;27;20197;-76
2023/07/01 07:43:32;;;;;;;8.67;3.00;;;20.80;99.90;;;;;;5116173;27;20733;-77
2023/07/01 07:45:58;;;;;;;6.87;2.57;;;20.80;99.90;;;;;;5116490;27;20224;-76
2023/07/01 07:48:24;;;;;;;4.50;2.60;;;20.70;99.90;;;;;;5133341;27;20198;-77
2023/07/01 07:50:49;;;;;;;2.30;2.07;;;20.80;99.90;;;;;;5152109;27;20279;-77
2023/07/01 07:53:15;;;;;;;7.03;2.80;;;20.90;99.90;;;;;;5152485;27;20257;-76
2023/07/01 07:55:42;;;;;;;2.80;2.30;;;20.80;99.90;;;;;;5116622;27;20197;-77
2023/07/01 07:58:09;;;;;;;6.53;2.50;;;20.80;99.90;;;;;;5099953;27;20215;-78
2023/07/01 08:00:35;;;;;;;3.77;2.50;;;20.60;99.90;;;;;;5152033;27;20430;-77
2023/07/01 08:03:00;;;;;;;3.17;2.10;;;20.40;99.90;;;;;;5152228;27;20453;-76
2023/07/01 08:05:27;;;;;;;3.20;1.73;;;20.70;99.90;;;;;;5152863;27;20236;-76
2023/07/01 08:07:53;;;;;;;7.57;2.47;;;20.90;99.90;;;;;;5152529;27;20177;-77
2023/07/01 08:10:19;;;;;;;4.70;2.03;;;21.00;99.90;;;;;;5133335;27;20430;-78
2023/07/01 08:12:44;;;;;;;4.63;2.50;;;21.20;99.90;;;;;;5151581;27;20187;-76
2023/07/01 08:15:10;;;;;;;6.70;2.60;;;21.30;99.90;;;;;;5115721;27;20358;-78
2023/07/01 08:17:36;;;;;;;7.57;2.37;;;21.30;99.30;;;;;;5151684;27;20554;-77
2023/07/01 08:20:02;;;;;;;3.87;2.10;;;21.40;99.90;;;;;;5151581;27;20201;-77
2023/07/01 08:22:28;;;;;;;4.33;2.33;;;21.60;99.90;;;;;;5151636;27;20207;-78
2023/07/01 08:24:54;;;;;;;5.67;2.40;;;21.80;99.70;;;;;;5133388;27;20429;-77
2023/07/01 08:27:19;;;;;;;3.80;2.13;;;21.80;97.90;;;;;;5133144;27;20197;-78
2023/07/01 08:29:45;;;;;;;3.47;2.13;;;21.60;97.70;;;;;;5116039;27;20208;-76
2023/07/01 08:32:10;;;;;;;2.77;2.30;;;21.60;99.90;;;;;;5152052;27;20283;-77
2023/07/01 08:34:36;;;;;;;5.73;2.10;;;21.70;98.00;;;;;;5133426;27;20185;-77
2023/07/01 08:37:02;;;;;;;2.20;1.73;;;21.80;96.50;;;;;;5151576;27;20697;-77
2023/07/01 08:39:28;;;;;;;2.50;2.23;;;21.90;97.20;;;;;;5150819;27;20615;-76
2023/07/01 08:42:03;;;;;;;6.40;3.30;;;22.10;96.10;;;;;;5133580;27;20484;-77
2023/07/01 08:44:30;;;;;;;2.40;2.20;;;22.20;96.00;;;;;;5133370;27;20689;-77
2023/07/01 08:46:56;;;;;;;6.87;2.53;;;22.00;95.00;;;;;;5151441;27;20416;-77
2023/07/01 08:49:23;;;;;;;4.10;2.07;;;22.30;96.90;;;;;;5151358;27;20406;-76
2023/07/01 08:52:17;;;;;;;3.73;2.10;;;22.40;95.50;;;;;;5151118;27;20769;-75
2023/07/01 08:54:43;;;;;;;6.60;2.27;;;22.60;94.80;;;;;;5147885;27;20435;-76
2023/07/01 08:57:09;;;;;;;3.63;2.63;;;22.80;93.80;;;;;;5131979;27;20423;-76
2023/07/01 08:59:35;;;;;;;3.63;2.80;;;22.90;94.70;;;;;;5150321;27;21150;-76
2023/07/01 09:02:01;;;;;;;3.97;2.07;;;22.90;94.80;;;;;;5131905;27;20469;-77
2023/07/01 09:04:27;;;;;;;7.80;2.47;;;23.20;94.20;;;;;;5131433;27;20476;-76
2023/07/01 09:06:53;;;;;;;10.97;2.67;;;23.20;94.60;;;;;;5131444;27;20181;-77
2023/07/01 09:09:19;;;;;;;5.93;2.67;;;23.10;95.50;;;;;;5130911;27;20505;-77
2023/07/01 09:11:44;;;;;;;7.27;2.50;;;23.10;94.70;;;;;;5149575;27;20243;-71
2023/07/01 09:14:13;;;;;;;3.27;2.63;;;22.70;92.60;;;;;;5130963;27;20185;-71
2023/07/01 09:16:39;;;;;;;3.70;2.53;;;22.80;94.30;;;;;;5149138;27;20202;-73
2023/07/01 09:19:17;;;;;;;3.77;2.83;;;23.00;94.20;;;;;;5149532;27;20414;-71
2023/07/01 09:21:43;;;;;;;3.07;2.70;;;23.10;95.00;;;;;;5149058;27;20570;-71
2023/07/01 09:24:11;;;;;;;3.20;2.77;;;23.20;94.30;;;;;;5149406;27;20409;-71
2023/07/01 09:26:38;;;;;;;3.57;2.20;;;23.40;93.60;;;;;;5149074;27;20442;-71
2023/07/01 09:29:15;;;;;;;7.60;2.30;;;23.50;92.70;;;;;;5149161;27;20400;-71
2023/07/01 09:31:48;;;;;;;3.43;2.63;;;24.10;93.60;;;;;;5149165;27;20435;-71
2023/07/01 09:34:16;;;;;;;3.23;2.40;;;24.00;93.80;;;;;;5149012;27;20415;-71
2023/07/01 09:36:42;;;;;;;3.47;2.47;;;24.00;93.30;;;;;;5148944;27;20503;-71
2023/07/01 09:39:08;;;;;;;5.97;2.80;;;24.00;92.70;;;;;;5149292;27;20927;-70
2023/07/01 09:41:35;;;;;;;7.07;2.87;;;24.10;92.60;;;;;;5148688;27;20880;-70
2023/07/01 09:44:01;;;;;;;9.10;2.40;;;24.40;92.30;;;;;;5148751;27;20422;-70
2023/07/01 09:46:47;;;;;;;3.23;2.60;;;24.80;91.60;;;;;;5148761;27;20417;-71
2023/07/01 09:49:12;;;;;;;5.83;3.03;;;25.00;91.00;;;;;;5129276;27;20435;-70
2023/07/01 09:51:49;;;;;;;3.17;2.37;;;24.90;90.20;;;;;;5150525;27;20429;-71
2023/07/01 09:54:25;;;;;;;6.37;3.47;;;25.20;90.20;;;;;;5152557;27;20290;-69
2023/07/01 09:56:56;;;;;;;6.33;3.80;;;25.20;89.90;;;;;;5152636;27;20416;-70
2023/07/01 09:59:21;;;;;;;7.50;3.70;;;24.90;90.00;;;;;;5134566;27;20424;-70
2023/07/01 10:01:50;;;;;;;61.27;15.43;;;24.90;90.50;;;;;;5152724;27;20503;-71
2023/07/01 10:04:21;;;;;;;9.47;3.03;;;24.90;91.10;;;;;;5152657;27;20176;-71
2023/07/01 10:06:47;;;;;;;7.60;2.90;;;24.90;90.10;;;;;;5134390;27;20423;-71
2023/07/01 10:09:12;;;;;;;4.53;2.70;;;24.70;90.00;;;;;;5152180;27;20423;-71
2023/07/01 10:11:38;;;;;;;2.80;2.30;;;24.70;88.20;;;;;;5116297;27;20215;-72
2023/07/01 10:14:05;;;;;;;7.60;2.60;;;24.90;85.70;;;;;;5152024;27;20191;-70
2023/07/01 10:16:32;;;;;;;3.63;2.40;;;25.30;89.70;;;;;;5152228;27;21000;-72
2023/07/01 10:18:59;;;;;;;6.40;2.43;;;25.30;86.30;;;;;;5152158;27;20424;-71
2023/07/01 10:21:27;;;;;;;2.23;2.10;;;25.50;85.60;;;;;;5152038;27;21007;-73
2023/07/01 10:24:02;;;;;;;5.17;2.10;;;25.90;85.00;;;;;;5133539;27;20413;-74
2023/07/01 10:26:37;;;;;;;7.53;2.27;;;25.90;83.30;;;;;;5152053;27;20421;-70
2023/07/01 10:29:28;;;;;;;3.23;2.20;;;25.90;83.80;;;;;;5151944;27;20440;-75
2023/07/01 10:32:09;;;;;;;6.90;2.37;;;25.70;84.20;;;;;;5133002;27;20466;-73
2023/07/01 10:34:53;;;;;;;2.70;1.90;;;25.80;83.20;;;;;;5151923;27;20410;-74
2023/07/01 10:37:21;;;;;;;2.60;2.37;;;25.70;83.20;;;;;;5132980;27;20843;-74
2023/07/01 10:39:47;;;;;;;3.10;2.13;;;25.80;83.70;;;;;;5151557;27;20425;-73
2023/07/01 10:42:33;;;;;;;2.10;1.90;;;26.00;83.10;;;;;;5151127;27;20864;-75
2023/07/01 10:45:11;;;;;;;2.17;1.97;;;26.10;82.00;;;;;;5151303;27;20172;-74
2023/07/01 10:47:43;;;;;;;4.13;2.50;;;26.00;78.60;;;;;;5151637;27;20421;-76
2023/07/01 10:50:16;;;;;;;2.27;2.07;;;25.70;77.80;;;;;;5151645;27;20426;-74
2023/07/01 10:52:57;;;;;;;5.10;2.20;;;25.30;79.80;;;;;;5151254;27;20409;-74
2023/07/01 10:55:38;;;;;;;3.40;2.33;;;25.60;79.40;;;;;;5151011;27;20432;-73
2023/07/01 10:58:18;;;;;;;2.70;2.00;;;25.80;79.80;;;;;;5151087;27;20410;-73
2023/07/01 11:00:45;;;;;;;3.70;2.43;;;26.00;78.60;;;;;;5132569;27;20513;-75
2023/07/01 11:03:36;;;;;;;2.63;1.90;;;26.10;79.10;;;;;;5150437;27;20840;-72
2023/07/01 11:06:03;;;;;;;3.23;2.37;;;25.90;77.60;;;;;;5137340;27;20444;-71
2023/07/01 11:08:30;;;;;;;3.00;2.40;;;25.90;79.30;;;;;;5150870;27;20444;-71
2023/07/01 11:10:56;;;;;;;2.27;2.07;;;26.00;75.90;;;;;;5150559;27;20448;-71
2023/07/01 11:13:22;;;;;;;2.57;2.27;;;26.00;74.80;;;;;;5150443;27;20425;-72
2023/07/01 11:16:08;;;;;;;5.93;2.43;;;26.10;76.30;;;;;;5131680;27;20418;-72
2023/07/01 11:18:45;;;;;;;4.77;2.80;;;26.20;76.50;;;;;;5150498;27;20409;-72
2023/07/01 11:21:13;;;;;;;3.23;2.37;;;26.70;76.60;;;;;;5151654;27;20980;-72
2023/07/01 11:23:42;;;;;;;6.63;1.83;;;27.00;75.90;;;;;;5132662;27;20440;-72
2023/07/01 11:26:09;;;;;;;4.27;2.30;;;27.20;73.50;;;;;;5131530;27;20413;-72
2023/07/01 11:28:37;;;;;;;6.40;1.70;;;27.10;74.20;;;;;;5150700;27;20927;-73
2023/07/01 11:31:33;;;;;;;3.67;2.60;;;26.70;72.10;;;;;;5150349;27;20435;-73
2023/07/01 11:33:59;;;;;;;2.97;2.30;;;27.00;73.80;;;;;;5147963;27;20433;-72
2023/07/01 11:36:44;;;;;;;3.37;2.40;;;26.90;70.00;;;;;;5150346;27;20440;-72
2023/07/01 11:39:15;;;;;;;2.70;2.10;;;27.40;72.90;;;;;;5150726;27;20409;-71
2023/07/01 11:41:43;;;;;;;3.17;2.47;;;27.80;72.80;;;;;;5150127;27;21037;-71
2023/07/01 11:44:14;;;;;;;4.90;2.53;;;27.50;72.40;;;;;;5149974;27;20413;-72
2023/07/01 11:46:42;;;;;;;12.30;2.30;;;27.20;72.70;;;;;;5150091;27;20462;-72
2023/07/01 11:49:30;;;;;;;3.40;2.50;;;27.20;72.20;;;;;;5114054;27;20985;-72
2023/07/01 11:52:01;;;;;;;3.37;2.03;;;27.20;72.20;;;;;;5131281;27;20492;-71
2023/07/01 11:54:37;;;;;;;2.27;1.60;;;27.50;72.10;;;;;;5132271;27;20506;-72
2023/07/01 11:57:18;;;;;;;3.40;2.43;;;27.70;71.70;;;;;;5151295;27;20409;-73
2023/07/01 11:59:48;;;;;;;4.83;1.97;;;28.00;71.70;;;;;;5132108;27;20528;-72
2023/07/01 12:02:15;;;;;;;3.87;2.30;;;28.10;68.40;;;;;;5150694;27;20545;-71
2023/07/01 12:04:41;;;;;;;2.10;1.90;;;28.10;70.60;;;;;;5151230;27;20425;-72
2023/07/01 12:07:13;;;;;;;6.40;2.17;;;28.10;70.00;;;;;;5131751;27;20911;-72
2023/07/01 12:09:40;;;;;;;4.57;2.23;;;27.90;70.50;;;;;;5150837;27;20661;-71
2023/07/01 12:12:07;;;;;;;5.90;2.43;;;27.80;71.90;;;;;;5150305;27;20406;-73
2023/07/01 12:14:33;;;;;;;3.23;2.70;;;27.60;69.80;;;;;;5150678;27;20417;-71
2023/07/01 12:16:58;;;;;;;2.33;2.13;;;27.50;69.90;;;;;;5151443;27;20410;-72
2023/07/01 12:19:25;;;;;;;3.10;2.40;;;27.60;69.70;;;;;;5151211;27;20441;-72
2023/07/01 12:21:52;;;;;;;5.57;2.13;;;27.30;68.50;;;;;;5150855;27;20206;-72
2023/07/01 12:24:20;;;;;;;2.80;2.60;;;27.10;68.40;;;;;;5151147;27;20410;-71
2023/07/01 12:26:57;;;;;;;3.83;2.37;;;26.80;70.00;;;;;;5132202;27;20962;-73
2023/07/01 12:29:23;;;;;;;3.97;3.00;;;26.60;71.60;;;;;;5149936;27;20417;-72
2023/07/01 12:31:49;;;;;;;9.20;2.70;;;26.40;70.80;;;;;;5131357;27;20514;-72
2023/07/01 12:34:15;;;;;;;2.37;2.17;;;26.30;71.80;;;;;;5149975;27;20935;-73
2023/07/01 12:36:45;;;;;;;5.97;2.60;;;26.00;71.20;;;;;;5150139;27;20414;-71
2023/07/01 12:39:11;;;;;;;5.23;2.63;;;26.00;72.80;;;;;;5150797;27;20420;-71
2023/07/01 12:41:37;;;;;;;4.60;2.27;;;25.70;73.20;;;;;;5150500;27;20840;-70
2023/07/01 12:44:04;;;;;;;2.93;2.07;;;25.60;73.70;;;;;;5150127;27;20488;-71
2023/07/01 12:46:30;;;;;;;4.93;2.00;;;25.50;73.70;;;;;;5149671;27;20420;-70
2023/07/01 12:48:56;;;;;;;2.40;1.90;;;25.40;73.60;;;;;;5149727;27;20463;-69